createdAt,value
2019-01-23T00:00:00.730Z,99578.75
2019-01-23T00:02:30.513Z,99580.44
2019-01-23T00:05:00.529Z,99575.03
2019-01-23T00:07:31.513Z,99573.25
2019-01-23T00:10:01.526Z,99566.36
2019-01-23T00:12:31.813Z,99562.89
2019-01-23T00:15:01.546Z,99555.05
2019-01-23T00:17:31.658Z,99555.05
2019-01-23T00:20:01.385Z,99556.20
2019-01-23T00:22:31.096Z,99549.88
2019-01-23T00:25:01.094Z,99550.03
2019-01-23T00:27:31.311Z,99545.25
2019-01-23T00:30:01.537Z,99545.81
2019-01-23T00:32:32.226Z,99540.63
2019-01-23T00:35:01.955Z,99541.47
2019-01-23T00:37:31.673Z,99538.91
2019-01-23T00:40:01.751Z,99533.67
2019-01-23T00:42:31.725Z,99530.89
2019-01-23T00:45:01.622Z,99527.05
2019-01-23T00:47:31.865Z,99524.43
2019-01-23T00:50:01.767Z,99526.55
2019-01-23T00:52:32.611Z,99522.84
2019-01-23T00:55:02.824Z,99516.44
2019-01-23T00:57:32.562Z,99516.81
2019-01-23T01:00:03.769Z,99518.09
2019-01-23T01:02:35.182Z,99520.22
2019-01-23T01:05:06.156Z,99514.94
2019-01-23T01:07:36.077Z,99516.66
2019-01-23T01:10:08.584Z,99520.00
2019-01-23T01:12:38.443Z,99515.66
2019-01-23T01:15:13.302Z,99522.93
2019-01-23T01:17:40.723Z,99520.15
2019-01-23T01:20:11.378Z,99514.59
2019-01-23T01:22:41.480Z,99517.77
2019-01-23T01:25:13.368Z,99516.05
2019-01-23T01:27:43.566Z,99514.64
2019-01-23T01:30:19.479Z,99510.66
2019-01-23T01:32:50.652Z,99516.41
2019-01-23T01:35:20.621Z,99512.63
2019-01-23T01:37:50.868Z,99516.03
2019-01-23T01:40:21.240Z,99516.30
2019-01-23T01:42:50.963Z,99514.05
2019-01-23T01:45:20.835Z,99509.39
2019-01-23T01:47:50.551Z,99509.39
2019-01-23T01:50:21.496Z,99504.44
2019-01-23T01:52:51.405Z,99511.18
2019-01-23T01:55:21.125Z,99507.71
2019-01-23T01:57:54.898Z,99508.39
2019-01-23T02:00:25.275Z,99504.14
2019-01-23T02:02:55.073Z,99501.98
2019-01-23T02:05:25.070Z,99499.70
2019-01-23T02:07:54.772Z,99497.91
2019-01-23T02:10:24.654Z,99494.34
2019-01-23T02:12:54.559Z,99491.37
2019-01-23T02:15:24.319Z,99497.23
2019-01-23T02:17:54.636Z,99489.64
2019-01-23T02:20:26.764Z,99489.74
2019-01-23T02:22:57.263Z,99489.74
2019-01-23T02:25:27.308Z,99487.62
2019-01-23T02:27:57.852Z,99483.84
2019-01-23T02:30:27.661Z,99485.97
2019-01-23T02:32:57.964Z,99486.47
2019-01-23T02:35:28.195Z,99481.98
2019-01-23T02:37:58.251Z,99477.23
2019-01-23T02:40:28.149Z,99475.35
2019-01-23T02:42:58.053Z,99481.55
2019-01-23T02:45:27.972Z,99475.42
2019-01-23T02:47:58.275Z,99476.64
2019-01-23T02:50:28.027Z,99471.02
2019-01-23T02:52:58.564Z,99469.73
2019-01-23T02:55:28.540Z,99466.87
2019-01-23T02:57:59.312Z,99468.15
2019-01-23T03:00:29.237Z,99466.80
2019-01-23T03:02:59.208Z,99461.61
2019-01-23T03:05:29.009Z,99458.17
2019-01-23T03:07:58.728Z,99456.62
2019-01-23T03:10:28.675Z,99458.00
2019-01-23T03:12:58.482Z,99452.31
2019-01-23T03:15:28.678Z,99455.03
2019-01-23T03:17:58.942Z,99460.49
2019-01-23T03:20:28.646Z,99453.19
2019-01-23T03:22:58.557Z,99451.33
2019-01-23T03:25:29.609Z,99453.28
2019-01-23T03:27:59.496Z,99449.75
2019-01-23T03:30:29.683Z,99449.31
2019-01-23T03:33:00.920Z,99451.77
2019-01-23T03:35:30.777Z,99446.00
2019-01-23T03:38:00.994Z,99444.63
2019-01-23T03:40:30.909Z,99452.67
2019-01-23T03:43:00.827Z,99450.55
2019-01-23T03:45:30.992Z,99451.83
2019-01-23T03:48:00.955Z,99451.39
2019-01-23T03:50:30.880Z,99452.34
2019-01-23T03:53:00.780Z,99446.78
2019-01-23T03:55:30.727Z,99445.30
2019-01-23T03:58:00.737Z,99448.23
2019-01-23T04:00:30.905Z,99449.07
2019-01-23T04:03:00.760Z,99449.98
2019-01-23T04:05:31.144Z,99449.00
2019-01-23T04:08:01.193Z,99445.13
2019-01-23T04:10:30.912Z,99446.00
2019-01-23T04:13:00.670Z,99447.28
2019-01-23T04:15:30.641Z,99442.09
2019-01-23T04:18:00.552Z,99440.78
2019-01-23T04:20:30.332Z,99446.84
2019-01-23T04:23:00.294Z,99452.34
2019-01-23T04:25:30.285Z,99447.80
2019-01-23T04:28:00.131Z,99448.80
2019-01-23T04:30:30.043Z,99441.26
2019-01-23T04:32:59.708Z,99449.65
2019-01-23T04:35:29.373Z,99450.52
2019-01-23T04:37:59.031Z,99453.09
2019-01-23T04:40:28.701Z,99448.73
2019-01-23T04:42:58.384Z,99449.07
2019-01-23T04:45:28.073Z,99446.17
2019-01-23T04:47:57.727Z,99446.91
2019-01-23T04:50:28.013Z,99446.84
2019-01-23T04:53:05.740Z,99451.56
2019-01-23T04:55:37.710Z,99443.61
2019-01-23T04:58:08.871Z,99449.98
2019-01-23T05:00:38.833Z,99449.34
2019-01-23T05:03:08.756Z,99455.81
2019-01-23T05:05:38.656Z,99448.63
2019-01-23T05:08:10.052Z,99458.38
2019-01-23T05:10:40.020Z,99455.88
2019-01-23T05:13:09.967Z,99449.58
2019-01-23T05:15:39.902Z,99452.91
2019-01-23T05:18:10.070Z,99447.42
2019-01-23T05:20:39.996Z,99449.84
2019-01-23T05:23:11.298Z,99449.41
2019-01-23T05:25:48.756Z,99448.39
2019-01-23T05:28:19.783Z,99456.28
2019-01-23T05:30:49.813Z,99446.19
2019-01-23T05:33:19.797Z,99451.95
2019-01-23T05:35:49.755Z,99453.63
2019-01-23T05:38:19.827Z,99454.27
2019-01-23T05:40:49.759Z,99461.52
2019-01-23T05:43:20.130Z,99451.46
2019-01-23T05:45:53.261Z,99459.92
2019-01-23T05:48:47.870Z,99448.39
2019-01-23T05:51:17.659Z,99452.94
2019-01-23T05:53:47.568Z,99449.42
2019-01-23T05:56:17.493Z,99451.14
2019-01-23T05:58:47.151Z,99461.36
2019-01-23T06:01:17.789Z,99462.31
2019-01-23T06:04:03.407Z,99459.92
2019-01-23T06:06:33.113Z,99459.92
2019-01-23T06:09:04.675Z,99464.47
2019-01-23T06:11:34.315Z,99462.12
2019-01-23T06:14:05.419Z,99465.05
2019-01-23T06:16:35.233Z,99466.00
2019-01-23T06:19:05.360Z,99465.95
2019-01-23T06:21:35.021Z,99468.63
2019-01-23T06:24:05.507Z,99466.77
2019-01-23T06:26:35.274Z,99469.66
2019-01-23T06:29:05.804Z,99466.22
2019-01-23T06:31:35.457Z,99471.62
2019-01-23T06:34:05.183Z,99471.62
2019-01-23T06:36:35.244Z,99462.61
2019-01-23T06:39:08.167Z,99469.05
2019-01-23T06:41:38.068Z,99474.00
2019-01-23T06:44:08.008Z,99471.77
2019-01-23T06:46:37.897Z,99475.72
2019-01-23T06:49:07.799Z,99478.86
2019-01-23T06:51:37.828Z,99481.55
2019-01-23T06:54:07.819Z,99486.28
2019-01-23T06:56:37.561Z,99482.06
2019-01-23T06:59:07.231Z,99485.16
2019-01-23T07:01:36.900Z,99478.49
2019-01-23T07:04:06.819Z,99484.70
2019-01-23T07:06:37.178Z,99492.52
2019-01-23T07:09:09.276Z,99495.08
2019-01-23T07:11:40.131Z,99495.58
2019-01-23T07:14:09.999Z,99494.73
2019-01-23T07:16:39.664Z,99495.68
2019-01-23T07:19:09.704Z,99498.68
2019-01-23T07:21:39.916Z,99501.70
2019-01-23T07:24:09.964Z,99506.62
2019-01-23T07:26:39.881Z,99497.83
2019-01-23T07:29:09.851Z,99505.45
2019-01-23T07:31:40.628Z,99506.59
2019-01-23T07:34:11.731Z,99502.88
2019-01-23T07:36:41.411Z,99511.51
2019-01-23T07:39:12.760Z,99510.08
2019-01-23T07:41:42.741Z,99509.88
2019-01-23T07:44:12.666Z,99511.93
2019-01-23T07:46:42.408Z,99523.55
2019-01-23T07:49:13.417Z,99527.11
2019-01-23T07:51:43.326Z,99532.36
2019-01-23T07:54:13.004Z,99533.39
2019-01-23T07:56:42.836Z,99533.39
2019-01-23T07:59:12.512Z,99531.73
2019-01-23T08:01:42.371Z,99531.95
2019-01-23T08:04:13.462Z,99530.11
2019-01-23T08:06:43.127Z,99530.79
2019-01-23T08:09:13.105Z,99520.11
2019-01-23T08:11:42.945Z,99519.06
2019-01-23T08:14:12.943Z,99529.55
2019-01-23T08:16:52.114Z,99528.17
2019-01-23T08:19:23.075Z,99524.77
2019-01-23T08:21:52.933Z,99531.52
2019-01-23T08:24:22.744Z,99525.62
2019-01-23T08:26:52.942Z,99525.05
2019-01-23T08:29:22.629Z,99529.55
2019-01-23T08:31:52.600Z,99529.17
2019-01-23T08:34:22.264Z,99527.96
2019-01-23T08:36:52.215Z,99534.39
2019-01-23T08:39:22.208Z,99538.57
2019-01-23T08:41:52.330Z,99537.64
2019-01-23T08:44:22.256Z,99545.59
2019-01-23T08:46:53.424Z,99542.75
2019-01-23T08:49:23.240Z,99545.97
2019-01-23T08:51:52.914Z,99553.92
2019-01-23T08:54:22.652Z,99550.34
2019-01-23T08:56:52.653Z,99555.67
2019-01-23T08:59:23.972Z,99563.70
2019-01-23T09:01:53.710Z,99565.51
2019-01-23T09:04:23.413Z,99555.39
2019-01-23T09:06:53.664Z,99568.70
2019-01-23T09:09:23.323Z,99566.51
2019-01-23T09:11:52.979Z,99562.79
2019-01-23T09:14:23.672Z,99561.57
2019-01-23T09:16:53.497Z,99561.13
2019-01-23T09:19:23.156Z,99567.84
2019-01-23T09:21:52.818Z,99570.64
2019-01-23T09:24:22.672Z,99564.67
2019-01-23T09:26:54.187Z,99570.64
2019-01-23T09:29:23.860Z,99570.14
2019-01-23T09:32:41.311Z,99571.19
2019-01-23T09:35:38.995Z,99574.80
2019-01-23T09:38:47.147Z,99570.83
2019-01-23T09:41:43.653Z,99572.31
2019-01-23T09:44:49.015Z,99579.97
2019-01-23T09:47:24.030Z,99579.88
2019-01-23T09:50:13.250Z,99577.48
2019-01-23T09:53:18.206Z,99581.80
2019-01-23T09:55:47.864Z,99589.75
2019-01-23T09:58:18.017Z,99586.81
2019-01-23T10:00:48.287Z,99582.63
2019-01-23T10:03:22.947Z,99582.73
2019-01-23T10:05:49.743Z,99581.41
2019-01-23T10:08:19.720Z,99581.91
2019-01-23T10:10:49.553Z,99587.34
2019-01-23T10:13:20.181Z,99593.72
2019-01-23T10:15:53.594Z,99596.59
2019-01-23T10:18:23.359Z,99598.64
2019-01-23T10:20:53.481Z,99595.06
2019-01-23T10:23:23.127Z,99600.79
2019-01-23T10:25:53.280Z,99603.69
2019-01-23T10:28:22.955Z,99599.91
2019-01-23T10:30:52.642Z,99598.36
2019-01-23T10:33:22.303Z,99599.75
2019-01-23T10:35:52.224Z,99594.02
2019-01-23T10:38:22.639Z,99595.78
2019-01-23T10:40:52.751Z,99591.46
2019-01-23T10:43:22.806Z,99598.88
2019-01-23T10:45:52.792Z,99592.46
2019-01-23T10:48:23.064Z,99598.36
2019-01-23T10:50:52.711Z,99601.12
2019-01-23T10:53:24.283Z,99599.70
2019-01-23T10:55:54.299Z,99600.35
2019-01-23T10:58:25.124Z,99597.59
2019-01-23T11:00:56.878Z,99600.79
2019-01-23T11:03:27.799Z,99599.14
2019-01-23T11:05:57.523Z,99595.66
2019-01-23T11:08:27.336Z,99592.76
2019-01-23T11:10:57.084Z,99597.02
2019-01-23T11:13:27.114Z,99609.52
2019-01-23T11:16:11.552Z,99599.78
2019-01-23T11:18:41.293Z,99602.98
2019-01-23T11:21:10.919Z,99610.82
2019-01-23T11:23:41.929Z,99602.49
2019-01-23T11:26:17.465Z,99609.68
2019-01-23T11:28:52.899Z,99607.36
2019-01-23T11:31:22.637Z,99604.83
2019-01-23T11:33:52.347Z,99607.73
2019-01-23T11:36:22.429Z,99609.86
2019-01-23T11:38:53.872Z,99607.63
2019-01-23T11:41:23.800Z,99608.50
2019-01-23T11:43:54.890Z,99607.63
2019-01-23T11:46:25.760Z,99605.50
2019-01-23T11:48:55.455Z,99609.47
2019-01-23T11:51:26.309Z,99610.57
2019-01-23T11:53:56.645Z,99612.48
2019-01-23T11:56:26.311Z,99621.73
2019-01-23T11:58:56.055Z,99622.39
2019-01-23T12:01:27.585Z,99624.81
2019-01-23T12:03:57.522Z,99633.10
2019-01-23T12:06:27.191Z,99630.17
2019-01-23T12:08:57.043Z,99626.17
2019-01-23T12:11:28.316Z,99631.89
2019-01-23T12:13:57.991Z,99638.83
2019-01-23T12:16:27.723Z,99641.77
2019-01-23T12:18:57.551Z,99631.89
2019-01-23T12:21:29.706Z,99636.88
2019-01-23T12:23:59.443Z,99641.39
2019-01-23T12:26:29.137Z,99640.88
2019-01-23T12:29:00.033Z,99639.70
2019-01-23T12:31:34.911Z,99639.78
2019-01-23T12:34:02.868Z,99640.81
2019-01-23T12:36:32.612Z,99644.30
2019-01-23T12:39:03.371Z,99643.82
2019-01-23T12:41:34.527Z,99641.72
2019-01-23T12:44:04.463Z,99639.92
2019-01-23T12:46:34.431Z,99643.56
2019-01-23T12:49:04.177Z,99642.09
2019-01-23T12:51:33.984Z,99643.19
2019-01-23T12:54:04.176Z,99645.75
2019-01-23T12:56:34.916Z,99644.91
2019-01-23T12:59:05.960Z,99647.73
2019-01-23T13:01:41.763Z,99643.95
2019-01-23T13:04:07.436Z,99648.32
2019-01-23T13:06:37.496Z,99650.56
2019-01-23T13:09:10.084Z,99646.52
2019-01-23T13:11:40.174Z,99647.04
2019-01-23T13:14:09.849Z,99647.81
2019-01-23T13:16:40.165Z,99649.42
2019-01-23T13:19:10.000Z,99641.72
2019-01-23T13:21:39.911Z,99643.44
2019-01-23T13:24:10.443Z,99644.07
2019-01-23T13:26:45.544Z,99640.88
2019-01-23T13:29:20.704Z,99642.61
2019-01-23T13:31:50.905Z,99641.50
2019-01-23T13:34:22.628Z,99637.61
2019-01-23T13:36:52.385Z,99643.56
2019-01-23T13:39:22.505Z,99642.49
2019-01-23T13:41:52.483Z,99643.82
2019-01-23T13:44:22.336Z,99649.54
2019-01-23T13:46:52.203Z,99643.96
2019-01-23T13:49:21.960Z,99654.05
2019-01-23T13:51:53.075Z,99660.84
2019-01-23T13:54:23.843Z,99662.20
2019-01-23T13:56:54.356Z,99659.88
2019-01-23T13:59:24.584Z,99657.16
2019-01-23T14:01:56.449Z,99661.42
2019-01-23T14:04:26.559Z,99660.46
2019-01-23T14:06:56.471Z,99666.88
2019-01-23T14:09:27.107Z,99663.22
2019-01-23T14:11:57.233Z,99659.48
2019-01-23T14:14:27.247Z,99665.98
2019-01-23T14:16:56.918Z,99663.08
2019-01-23T14:19:26.651Z,99671.18
2019-01-23T14:21:56.315Z,99674.77
2019-01-23T14:24:26.547Z,99684.02
2019-01-23T14:26:56.371Z,99676.94
2019-01-23T14:29:26.304Z,99682.47
2019-01-23T14:32:03.066Z,99677.14
2019-01-23T14:34:27.952Z,99683.05
2019-01-23T14:36:57.614Z,99689.77
2019-01-23T14:39:27.518Z,99690.16
2019-01-23T14:41:57.506Z,99697.87
2019-01-23T14:44:27.418Z,99696.69
2019-01-23T14:46:57.255Z,99706.66
2019-01-23T14:49:27.227Z,99710.13
2019-01-23T14:51:57.883Z,99708.41
2019-01-23T14:54:28.438Z,99711.74
2019-01-23T14:56:59.093Z,99713.66
2019-01-23T14:59:28.955Z,99715.97
2019-01-23T15:01:58.723Z,99725.02
2019-01-23T15:04:28.914Z,99732.66
2019-01-23T15:06:59.197Z,99730.86
2019-01-23T15:09:29.202Z,99733.18
2019-01-23T15:11:58.886Z,99735.13
2019-01-23T15:14:28.653Z,99734.22
2019-01-23T15:16:59.057Z,99731.34
2019-01-23T15:19:28.964Z,99737.50
2019-01-23T15:21:58.872Z,99734.73
2019-01-23T15:24:28.551Z,99735.50
2019-01-23T15:26:58.211Z,99742.69
2019-01-23T15:29:28.124Z,99741.41
2019-01-23T15:31:58.570Z,99749.89
2019-01-23T15:34:29.044Z,99752.53
2019-01-23T15:36:58.958Z,99763.38
2019-01-23T15:39:28.963Z,99762.61
2019-01-23T15:44:52.475Z,99767.98
2019-01-23T15:47:22.226Z,99774.47
2019-01-23T15:49:52.125Z,99779.78
2019-01-23T15:52:22.715Z,99785.80
2019-01-23T15:54:52.629Z,99784.75
2019-01-23T15:57:22.471Z,99793.16
2019-01-23T15:59:52.380Z,99797.02
2019-01-23T16:02:24.363Z,99803.59
2019-01-23T16:04:54.737Z,99804.95
2019-01-23T16:07:24.579Z,99809.34
2019-01-23T16:09:56.059Z,99814.60
2019-01-23T16:12:25.945Z,99818.95
2019-01-23T16:14:56.088Z,99822.02
2019-01-23T16:17:26.640Z,99826.31
2019-01-23T16:19:57.541Z,99825.09
2019-01-23T16:22:28.810Z,99830.11
2019-01-23T16:25:15.894Z,99822.70
2019-01-23T16:27:45.934Z,99829.62
2019-01-23T16:30:22.665Z,99836.16
2019-01-23T16:32:52.841Z,99834.09
2019-01-23T16:35:23.004Z,99836.38
2019-01-23T16:37:53.899Z,99839.88
2019-01-23T16:40:43.000Z,99840.16
2019-01-23T16:43:18.152Z,99850.36
2019-01-23T16:45:47.980Z,99845.95
2019-01-23T16:48:32.528Z,99855.62
2019-01-23T16:51:08.151Z,99854.77
2019-01-23T16:53:39.955Z,99858.13
2019-01-23T16:56:11.279Z,99865.38
2019-01-23T16:58:41.202Z,99868.66
2019-01-23T17:01:32.007Z,99871.17
2019-01-23T17:04:05.847Z,99877.55
2019-01-23T17:06:38.583Z,99884.56
2019-01-23T17:09:09.448Z,99879.14
2019-01-23T17:11:40.759Z,99879.14
2019-01-23T17:14:11.323Z,99884.15
2019-01-23T17:16:40.998Z,99892.03
2019-01-23T17:19:11.849Z,99899.88
2019-01-23T17:21:41.875Z,99896.18
2019-01-23T17:24:12.584Z,99904.00
2019-01-23T17:26:42.315Z,99910.50
2019-01-23T17:29:15.448Z,99920.47
2019-01-23T17:31:45.717Z,99921.37
2019-01-23T17:34:16.266Z,99929.55
2019-01-23T17:36:46.224Z,99934.10
2019-01-23T17:39:17.389Z,99941.73
2019-01-23T17:41:48.133Z,99941.73
2019-01-23T17:44:19.428Z,99949.13
2019-01-23T17:46:50.379Z,99941.33
2019-01-23T17:49:20.643Z,99945.38
2019-01-23T17:51:51.466Z,99955.24
2019-01-23T17:54:25.436Z,99950.12
2019-01-23T17:56:56.079Z,99953.03
2019-01-23T17:59:27.165Z,99955.67
2019-01-23T18:01:57.034Z,99955.24
2019-01-23T18:04:28.006Z,99956.52
2019-01-23T18:06:59.131Z,99959.14
2019-01-23T18:09:29.096Z,99966.36
2019-01-23T18:11:59.775Z,99969.87
2019-01-23T18:14:29.593Z,99965.69
2019-01-23T18:17:05.136Z,99967.45
2019-01-23T18:19:36.668Z,99964.64
2019-01-23T18:22:06.779Z,99965.92
2019-01-23T18:24:43.709Z,99970.59
2019-01-23T18:27:13.683Z,99973.13
2019-01-23T18:29:43.519Z,99980.89
2019-01-23T18:32:13.995Z,99984.38
2019-01-23T18:35:10.096Z,99988.38
2019-01-23T18:38:16.442Z,99991.86
2019-01-23T18:44:59.553Z,99995.39
2019-01-23T18:51:19.717Z,100006.48
2019-01-23T18:56:43.731Z,100005.74
2019-01-23T18:59:13.854Z,100006.28
2019-01-23T19:01:44.069Z,100003.74
2019-01-23T19:04:14.049Z,100003.43
2019-01-23T19:06:43.973Z,100009.45
2019-01-23T19:09:13.885Z,100004.81
2019-01-23T19:11:44.179Z,100002.73
2019-01-23T19:14:14.090Z,100004.98
2019-01-23T19:16:44.435Z,100008.46
2019-01-23T19:19:14.952Z,100018.82
2019-01-23T19:21:46.218Z,100016.74
2019-01-23T19:24:17.462Z,100024.04
2019-01-23T19:26:47.349Z,100028.31
2019-01-23T19:29:19.074Z,100024.91
2019-01-23T19:31:48.952Z,100030.13
2019-01-23T19:34:19.539Z,100030.17
2019-01-23T19:36:49.936Z,100029.33
2019-01-23T19:39:19.978Z,100030.29
2019-01-23T19:41:50.213Z,100037.23
2019-01-23T19:44:25.315Z,100041.92
2019-01-23T19:47:00.774Z,100043.67
2019-01-23T19:49:30.801Z,100044.11
2019-01-23T19:52:03.081Z,100041.23
2019-01-23T19:54:33.213Z,100034.88
2019-01-23T19:57:03.855Z,100038.66
2019-01-23T19:59:35.895Z,100038.67
2019-01-23T20:02:06.190Z,100046.81
2019-01-23T20:04:37.676Z,100042.56
2019-01-23T20:07:12.083Z,100044.59
2019-01-23T20:09:42.351Z,100042.03
2019-01-23T20:12:15.602Z,100043.52
2019-01-23T20:14:45.131Z,100050.77
2019-01-23T20:17:15.443Z,100055.78
2019-01-23T20:19:46.192Z,100067.77
2019-01-23T20:22:16.412Z,100074.06
2019-01-23T20:24:46.318Z,100071.34
2019-01-23T20:27:17.502Z,100074.27
2019-01-23T20:29:48.847Z,100076.34
2019-01-23T20:32:19.220Z,100077.20
2019-01-23T20:34:49.426Z,100074.06
2019-01-23T20:37:23.449Z,100079.93
2019-01-23T20:39:51.681Z,100072.72
2019-01-23T20:42:22.411Z,100075.28
2019-01-23T20:44:52.382Z,100078.17
2019-01-23T20:47:23.039Z,100082.01
2019-01-23T20:49:52.867Z,100082.38
2019-01-23T20:52:23.666Z,100092.09
2019-01-23T20:54:53.600Z,100097.53
2019-01-23T20:57:23.860Z,100097.98
2019-01-23T20:59:53.716Z,100102.69
2019-01-23T21:02:23.625Z,100101.46
2019-01-23T21:04:54.464Z,100103.45
2019-01-23T21:07:24.549Z,100107.70
2019-01-23T21:09:55.095Z,100114.69
2019-01-23T21:12:25.735Z,100114.26
2019-01-23T21:14:55.953Z,100122.47
2019-01-23T21:17:25.871Z,100122.45
2019-01-23T21:19:59.040Z,100120.23
2019-01-23T21:22:29.382Z,100120.17
2019-01-23T21:25:03.246Z,100115.92
2019-01-23T21:27:35.037Z,100125.68
2019-01-23T21:30:08.518Z,100130.80
2019-01-23T21:32:39.897Z,100134.73
2019-01-23T21:35:10.209Z,100132.55
2019-01-23T21:37:41.781Z,100132.00
2019-01-23T21:40:17.938Z,100135.01
2019-01-23T21:42:48.210Z,100143.55
2019-01-23T21:45:19.177Z,100142.89
2019-01-23T21:47:49.957Z,100145.48
2019-01-23T21:50:20.934Z,100141.61
2019-01-23T21:52:51.330Z,100139.47
2019-01-23T21:55:22.578Z,100148.98
2019-01-23T21:57:52.849Z,100150.74
2019-01-23T22:00:28.374Z,100148.17
2019-01-23T22:02:58.917Z,100151.06
2019-01-23T22:05:29.154Z,100158.75
2019-01-23T22:08:00.042Z,100164.86
2019-01-23T22:10:30.851Z,100170.34
2019-01-23T22:13:00.865Z,100165.23
2019-01-23T22:15:31.378Z,100162.25
2019-01-23T22:18:01.352Z,100171.63
2019-01-23T22:20:32.019Z,100166.89
2019-01-23T22:23:02.718Z,100171.86
2019-01-23T22:25:32.562Z,100174.52
2019-01-23T22:28:02.625Z,100170.39
2019-01-23T22:30:33.138Z,100179.81
2019-01-23T22:33:05.831Z,100177.69
2019-01-23T22:35:36.659Z,100182.39
2019-01-23T22:38:07.803Z,100184.52
2019-01-23T22:40:38.474Z,100189.59
2019-01-23T22:43:14.999Z,100187.03
2019-01-23T22:45:41.069Z,100196.25
2019-01-23T22:48:11.297Z,100194.41
2019-01-23T22:50:41.274Z,100188.29
2019-01-23T22:53:11.210Z,100189.63
2019-01-23T22:55:41.331Z,100193.94
2019-01-23T22:58:11.256Z,100199.39
2019-01-23T23:01:21.183Z,100199.48
2019-01-23T23:03:50.930Z,100199.05
2019-01-23T23:06:20.793Z,100207.20
2019-01-23T23:08:50.662Z,100214.92
2019-01-23T23:11:20.520Z,100219.98
2019-01-23T23:13:50.354Z,100220.46
2019-01-23T23:16:21.588Z,100222.56
2019-01-23T23:18:51.482Z,100223.78
2019-01-23T23:21:21.616Z,100231.84
2019-01-23T23:23:51.555Z,100237.85
2019-01-23T23:26:21.917Z,100245.91
2019-01-23T23:28:51.692Z,100254.53
2019-01-23T23:31:21.853Z,100252.36
2019-01-23T23:36:46.625Z,100254.30
2019-01-23T23:39:16.526Z,100260.27
2019-01-23T23:41:46.454Z,100262.12
2019-01-23T23:44:16.592Z,100261.35
2019-01-23T23:46:46.276Z,100264.38
2019-01-23T23:49:16.177Z,100264.86
2019-01-23T23:51:46.149Z,100264.52
2019-01-23T23:54:16.017Z,100266.31
2019-01-23T23:56:46.007Z,100270.58
2019-01-23T23:59:16.172Z,100268.06
